This is the latest recevied weather packets stored in our database for station/object AA4OM-2. If no packets are shown the sender has not sent any weather packets the latest 10 day(s).
| Time | Temp. | Humidity | Pressure | Rain* | Wind** | Luminosity | Snow |
|---|---|---|---|---|---|---|---|
| 1777763045 | 15° C | 50% | 1018.5 hPa | 0 mm | - | 143 W/m² | - |
| 1777762742 | 15° C | 51% | 1018.7 hPa | 0 mm | - | 155 W/m² | - |
| 1777762438 | 15° C | 51% | 1018.6 hPa | 0 mm | - | 170 W/m² | - |
| 1777762135 | 15.56° C | 50% | 1018.7 hPa | 0 mm | - | 188 W/m² | - |
| 1777761825 | 15° C | 51% | 1018.6 hPa | 0 mm | - | 200 W/m² | - |
| 1777761523 | 15.56° C | 50% | 1018.5 hPa | 0 mm | - | 218 W/m² | - |
| 1777761221 | 15.56° C | 50% | 1018.4 hPa | 0 mm | - | 236 W/m² | - |
| 1777760913 | 15.56° C | 50% | 1018.3 hPa | 0 mm | - | 255 W/m² | - |
| 1777760610 | 15.56° C | 49% | 1018.4 hPa | 0 mm | - | 270 W/m² | - |
| 1777760305 | 16.11° C | 50% | 1018.2 hPa | 0 mm | - | 294 W/m² | - |
| 1777760002 | 15.56° C | 52% | 1018.2 hPa | 0 mm | - | 309 W/m² | - |
| 1777759700 | 16.11° C | 51% | 1018.1 hPa | 0 mm | - | 298 W/m² | - |
| 1777759395 | 16.11° C | 51% | 1017.9 hPa | 0 mm | - | 381 W/m² | - |
| 1777759092 | 15.56° C | 53% | 1017.8 hPa | 0 mm | - | 375 W/m² | - |
| 1777758789 | 15.56° C | 54% | 1017.9 hPa | 0 mm | - | 176 W/m² | - |
| 1777758486 | 15.56° C | 54% | 1017.7 hPa | 0 mm | - | 153 W/m² | - |
| 1777758183 | 15.56° C | 54% | 1017.6 hPa | 0 mm | - | 156 W/m² | - |
| 1777757880 | 15.56° C | 52% | 1017.6 hPa | 0 mm | - | 268 W/m² | - |
| 1777757577 | 16.11° C | 53% | 1017.4 hPa | 0 mm | - | 162 W/m² | - |
| 1777757276 | 16.11° C | 52% | 1017.3 hPa | 0 mm | - | 202 W/m² | - |
| 1777756974 | 16.11° C | 53% | 1017.2 hPa | 0 mm | - | 184 W/m² | - |
| 1777756670 | 16.67° C | 53% | 1017.1 hPa | 0 mm | - | 175 W/m² | - |
| 1777756366 | 16.67° C | 51% | 1017 hPa | 0 mm | - | 204 W/m² | - |
| 1777756064 | 17.78° C | 44% | 1017 hPa | 0 mm | - | 157 W/m² | - |
| 1777755761 | 18.33° C | 38% | 1016.7 hPa | 0 mm | - | 341 W/m² | - |
* Rain latest hour (hover to see other rain measurements)
** Current wind speed in m/s (hover to see current wind gust speed)